sensor_id;sensor_type;location;lat;lon;timestamp;P1;durP1;ratioP1;P2;durP2;ratioP2
19059;SDS011;9663;48.996;8.334;2022-09-20T00:01:25;2.30;;;0.85;;
19059;SDS011;9663;48.996;8.334;2022-09-20T00:03:56;2.28;;;0.80;;
19059;SDS011;9663;48.996;8.334;2022-09-20T00:06:25;2.75;;;0.80;;
19059;SDS011;9663;48.996;8.334;2022-09-20T00:08:54;2.22;;;0.80;;
19059;SDS011;9663;48.996;8.334;2022-09-20T00:11:22;2.58;;;1.00;;
19059;SDS011;9663;48.996;8.334;2022-09-20T00:13:52;2.72;;;0.90;;
19059;SDS011;9663;48.996;8.334;2022-09-20T00:16:22;2.47;;;0.80;;
19059;SDS011;9663;48.996;8.334;2022-09-20T00:18:54;3.08;;;1.00;;
19059;SDS011;9663;48.996;8.334;2022-09-20T00:21:23;1.88;;;0.77;;
19059;SDS011;9663;48.996;8.334;2022-09-20T00:23:52;2.58;;;0.82;;
19059;SDS011;9663;48.996;8.334;2022-09-20T00:26:20;2.20;;;0.85;;
19059;SDS011;9663;48.996;8.334;2022-09-20T00:28:46;2.58;;;0.80;;
19059;SDS011;9663;48.996;8.334;2022-09-20T00:31:13;2.40;;;0.82;;
19059;SDS011;9663;48.996;8.334;2022-09-20T00:33:39;2.78;;;0.80;;
19059;SDS011;9663;48.996;8.334;2022-09-20T00:36:24;2.53;;;0.88;;
19059;SDS011;9663;48.996;8.334;2022-09-20T00:38:58;3.72;;;0.82;;
19059;SDS011;9663;48.996;8.334;2022-09-20T00:41:26;1.73;;;0.73;;
19059;SDS011;9663;48.996;8.334;2022-09-20T00:43:53;2.33;;;0.95;;
19059;SDS011;9663;48.996;8.334;2022-09-20T00:49:23;3.17;;;1.00;;
19059;SDS011;9663;48.996;8.334;2022-09-20T00:51:54;2.65;;;0.85;;
19059;SDS011;9663;48.996;8.334;2022-09-20T00:54:25;2.58;;;0.82;;
19059;SDS011;9663;48.996;8.334;2022-09-20T00:56:54;2.70;;;0.85;;
19059;SDS011;9663;48.996;8.334;2022-09-20T00:59:24;3.35;;;0.93;;
19059;SDS011;9663;48.996;8.334;2022-09-20T01:01:58;3.15;;;1.00;;
19059;SDS011;9663;48.996;8.334;2022-09-20T01:04:38;2.47;;;0.77;;
19059;SDS011;9663;48.996;8.334;2022-09-20T01:07:07;3.63;;;0.90;;
19059;SDS011;9663;48.996;8.334;2022-09-20T01:09:37;3.88;;;0.80;;
19059;SDS011;9663;48.996;8.334;2022-09-20T01:12:05;2.90;;;0.90;;
19059;SDS011;9663;48.996;8.334;2022-09-20T01:14:39;2.60;;;0.82;;
19059;SDS011;9663;48.996;8.334;2022-09-20T01:17:08;2.95;;;0.90;;
19059;SDS011;9663;48.996;8.334;2022-09-20T01:22:40;2.25;;;0.80;;
19059;SDS011;9663;48.996;8.334;2022-09-20T01:28:34;2.42;;;0.88;;
19059;SDS011;9663;48.996;8.334;2022-09-20T01:33:52;4.38;;;0.90;;
19059;SDS011;9663;48.996;8.334;2022-09-20T01:39:05;3.03;;;0.80;;
19059;SDS011;9663;48.996;8.334;2022-09-20T01:42:10;2.95;;;1.00;;
19059;SDS011;9663;48.996;8.334;2022-09-20T01:50:35;3.10;;;0.70;;
19059;SDS011;9663;48.996;8.334;2022-09-20T02:00:29;2.03;;;0.60;;
19059;SDS011;9663;48.996;8.334;2022-09-20T02:21:14;3.47;;;0.70;;
19059;SDS011;9663;48.996;8.334;2022-09-20T02:24:00;2.78;;;0.70;;
19059;SDS011;9663;48.996;8.334;2022-09-20T02:46:11;2.80;;;0.80;;
19059;SDS011;9663;48.996;8.334;2022-09-20T02:48:19;2.33;;;0.70;;
19059;SDS011;9663;48.996;8.334;2022-09-20T02:51:01;1.77;;;0.70;;
19059;SDS011;9663;48.996;8.334;2022-09-20T02:53:47;3.50;;;0.88;;
19059;SDS011;9663;48.996;8.334;2022-09-20T03:00:01;3.03;;;0.70;;
19059;SDS011;9663;48.996;8.334;2022-09-20T03:02:51;2.38;;;0.65;;
19059;SDS011;9663;48.996;8.334;2022-09-20T03:11:43;2.15;;;0.70;;
19059;SDS011;9663;48.996;8.334;2022-09-20T03:22:57;1.90;;;0.70;;
19059;SDS011;9663;48.996;8.334;2022-09-20T03:28:33;3.40;;;0.80;;
19059;SDS011;9663;48.996;8.334;2022-09-20T03:33:58;3.70;;;0.93;;
19059;SDS011;9663;48.996;8.334;2022-09-20T03:36:49;3.20;;;0.82;;
19059;SDS011;9663;48.996;8.334;2022-09-20T03:40:05;2.50;;;0.70;;
19059;SDS011;9663;48.996;8.334;2022-09-20T03:42:51;2.17;;;0.70;;
19059;SDS011;9663;48.996;8.334;2022-09-20T03:45:52;4.10;;;0.70;;
19059;SDS011;9663;48.996;8.334;2022-09-20T03:54:53;3.58;;;0.73;;
19059;SDS011;9663;48.996;8.334;2022-09-20T04:09:21;3.35;;;0.65;;
19059;SDS011;9663;48.996;8.334;2022-09-20T04:23:58;2.22;;;0.77;;
19059;SDS011;9663;48.996;8.334;2022-09-20T04:26:55;2.22;;;0.90;;
19059;SDS011;9663;48.996;8.334;2022-09-20T04:47:42;3.08;;;0.70;;
19059;SDS011;9663;48.996;8.334;2022-09-20T04:56:19;2.25;;;0.90;;
19059;SDS011;9663;48.996;8.334;2022-09-20T04:59:06;3.08;;;0.80;;
19059;SDS011;9663;48.996;8.334;2022-09-20T05:19:52;2.58;;;0.75;;
19059;SDS011;9663;48.996;8.334;2022-09-20T05:25:48;2.40;;;0.85;;
19059;SDS011;9663;48.996;8.334;2022-09-20T05:28:30;2.55;;;0.80;;
19059;SDS011;9663;48.996;8.334;2022-09-20T05:43:52;2.75;;;0.80;;
19059;SDS011;9663;48.996;8.334;2022-09-20T05:46:44;2.95;;;0.90;;
19059;SDS011;9663;48.996;8.334;2022-09-20T05:55:21;2.58;;;0.68;;
19059;SDS011;9663;48.996;8.334;2022-09-20T06:01:23;2.40;;;0.90;;
19059;SDS011;9663;48.996;8.334;2022-09-20T06:04:05;1.98;;;0.70;;
19059;SDS011;9663;48.996;8.334;2022-09-20T06:06:56;2.85;;;0.70;;
19059;SDS011;9663;48.996;8.334;2022-09-20T06:16:04;2.38;;;0.75;;
19059;SDS011;9663;48.996;8.334;2022-09-20T06:21:42;2.35;;;0.77;;
19059;SDS011;9663;48.996;8.334;2022-09-20T06:24:23;2.03;;;0.70;;
19059;SDS011;9663;48.996;8.334;2022-09-20T06:27:01;1.55;;;0.65;;
19059;SDS011;9663;48.996;8.334;2022-09-20T06:29:35;2.35;;;0.90;;
19059;SDS011;9663;48.996;8.334;2022-09-20T06:32:05;4.55;;;1.10;;
19059;SDS011;9663;48.996;8.334;2022-09-20T06:34:32;3.05;;;0.60;;
19059;SDS011;9663;48.996;8.334;2022-09-20T06:37:21;2.35;;;0.77;;
19059;SDS011;9663;48.996;8.334;2022-09-20T06:40:49;2.65;;;0.88;;
19059;SDS011;9663;48.996;8.334;2022-09-20T06:43:34;3.45;;;1.00;;
19059;SDS011;9663;48.996;8.334;2022-09-20T06:46:01;4.05;;;0.98;;
19059;SDS011;9663;48.996;8.334;2022-09-20T06:48:26;3.17;;;1.00;;
19059;SDS011;9663;48.996;8.334;2022-09-20T06:50:55;3.83;;;1.05;;
19059;SDS011;9663;48.996;8.334;2022-09-20T06:53:28;2.40;;;0.80;;
19059;SDS011;9663;48.996;8.334;2022-09-20T06:55:57;2.90;;;0.90;;
19059;SDS011;9663;48.996;8.334;2022-09-20T06:58:24;2.95;;;0.82;;
19059;SDS011;9663;48.996;8.334;2022-09-20T07:00:50;3.47;;;1.00;;
19059;SDS011;9663;48.996;8.334;2022-09-20T07:03:17;2.58;;;0.80;;
19059;SDS011;9663;48.996;8.334;2022-09-20T07:05:44;3.28;;;1.00;;
19059;SDS011;9663;48.996;8.334;2022-09-20T07:08:10;3.00;;;0.85;;
19059;SDS011;9663;48.996;8.334;2022-09-20T07:10:36;3.25;;;1.00;;
19059;SDS011;9663;48.996;8.334;2022-09-20T07:13:02;3.35;;;0.80;;
19059;SDS011;9663;48.996;8.334;2022-09-20T07:15:30;2.88;;;1.00;;
19059;SDS011;9663;48.996;8.334;2022-09-20T07:17:58;2.65;;;1.02;;
19059;SDS011;9663;48.996;8.334;2022-09-20T07:20:24;3.83;;;0.90;;
19059;SDS011;9663;48.996;8.334;2022-09-20T07:22:51;2.95;;;0.95;;
19059;SDS011;9663;48.996;8.334;2022-09-20T07:25:17;3.38;;;1.02;;
19059;SDS011;9663;48.996;8.334;2022-09-20T07:27:45;2.53;;;0.73;;
19059;SDS011;9663;48.996;8.334;2022-09-20T07:30:14;3.53;;;1.10;;
19059;SDS011;9663;48.996;8.334;2022-09-20T07:32:42;2.63;;;0.90;;
19059;SDS011;9663;48.996;8.334;2022-09-20T07:35:08;5.88;;;1.00;;
19059;SDS011;9663;48.996;8.334;2022-09-20T07:37:36;2.45;;;0.88;;
19059;SDS011;9663;48.996;8.334;2022-09-20T07:40:05;2.60;;;0.98;;
19059;SDS011;9663;48.996;8.334;2022-09-20T07:42:33;3.70;;;1.02;;
19059;SDS011;9663;48.996;8.334;2022-09-20T07:44:59;3.00;;;1.00;;
19059;SDS011;9663;48.996;8.334;2022-09-20T07:47:27;2.67;;;0.98;;
19059;SDS011;9663;48.996;8.334;2022-09-20T07:49:56;4.32;;;1.15;;
19059;SDS011;9663;48.996;8.334;2022-09-20T07:52:22;3.10;;;0.85;;
19059;SDS011;9663;48.996;8.334;2022-09-20T07:54:48;3.90;;;0.90;;
19059;SDS011;9663;48.996;8.334;2022-09-20T07:57:14;3.08;;;0.85;;
19059;SDS011;9663;48.996;8.334;2022-09-20T07:59:40;3.95;;;0.90;;
19059;SDS011;9663;48.996;8.334;2022-09-20T08:02:08;2.78;;;0.80;;
19059;SDS011;9663;48.996;8.334;2022-09-20T08:04:39;3.17;;;0.90;;
19059;SDS011;9663;48.996;8.334;2022-09-20T08:07:05;2.45;;;0.80;;
19059;SDS011;9663;48.996;8.334;2022-09-20T08:09:30;4.32;;;1.15;;
19059;SDS011;9663;48.996;8.334;2022-09-20T08:11:56;4.03;;;0.75;;
19059;SDS011;9663;48.996;8.334;2022-09-20T08:14:22;2.65;;;0.80;;
19059;SDS011;9663;48.996;8.334;2022-09-20T08:16:48;3.05;;;0.98;;
19059;SDS011;9663;48.996;8.334;2022-09-20T08:21:46;3.53;;;0.88;;
19059;SDS011;9663;48.996;8.334;2022-09-20T08:24:14;4.10;;;1.00;;
19059;SDS011;9663;48.996;8.334;2022-09-20T08:26:41;2.78;;;0.85;;
19059;SDS011;9663;48.996;8.334;2022-09-20T08:29:08;2.10;;;0.70;;
19059;SDS011;9663;48.996;8.334;2022-09-20T08:31:36;3.22;;;0.90;;
19059;SDS011;9663;48.996;8.334;2022-09-20T08:34:06;2.22;;;0.73;;
19059;SDS011;9663;48.996;8.334;2022-09-20T08:36:35;2.58;;;0.70;;
19059;SDS011;9663;48.996;8.334;2022-09-20T08:39:05;2.83;;;0.70;;
19059;SDS011;9663;48.996;8.334;2022-09-20T08:41:44;2.95;;;0.80;;
19059;SDS011;9663;48.996;8.334;2022-09-20T08:44:25;1.63;;;0.55;;
19059;SDS011;9663;48.996;8.334;2022-09-20T08:47:31;2.17;;;0.77;;
19059;SDS011;9663;48.996;8.334;2022-09-20T08:50:05;3.22;;;0.95;;
19059;SDS011;9663;48.996;8.334;2022-09-20T08:52:35;3.33;;;0.85;;
19059;SDS011;9663;48.996;8.334;2022-09-20T08:55:11;4.28;;;1.00;;
19059;SDS011;9663;48.996;8.334;2022-09-20T08:57:54;2.22;;;0.75;;
19059;SDS011;9663;48.996;8.334;2022-09-20T09:00:23;3.08;;;0.80;;
19059;SDS011;9663;48.996;8.334;2022-09-20T09:02:55;3.47;;;0.85;;
19059;SDS011;9663;48.996;8.334;2022-09-20T09:05:31;3.20;;;0.70;;
19059;SDS011;9663;48.996;8.334;2022-09-20T09:08:09;3.30;;;0.70;;
19059;SDS011;9663;48.996;8.334;2022-09-20T09:10:51;2.63;;;0.63;;
19059;SDS011;9663;48.996;8.334;2022-09-20T09:13:30;2.70;;;0.70;;
19059;SDS011;9663;48.996;8.334;2022-09-20T09:16:04;2.08;;;0.68;;
19059;SDS011;9663;48.996;8.334;2022-09-20T09:18:40;2.63;;;0.70;;
19059;SDS011;9663;48.996;8.334;2022-09-20T09:21:16;2.78;;;0.80;;
19059;SDS011;9663;48.996;8.334;2022-09-20T09:23:52;2.13;;;0.82;;
19059;SDS011;9663;48.996;8.334;2022-09-20T09:26:26;4.68;;;0.80;;
19059;SDS011;9663;48.996;8.334;2022-09-20T09:29:18;2.92;;;0.77;;
19059;SDS011;9663;48.996;8.334;2022-09-20T09:31:47;3.78;;;0.93;;
19059;SDS011;9663;48.996;8.334;2022-09-20T09:34:26;2.92;;;0.80;;
19059;SDS011;9663;48.996;8.334;2022-09-20T09:37:02;2.53;;;0.80;;
19059;SDS011;9663;48.996;8.334;2022-09-20T09:39:35;3.30;;;0.93;;
19059;SDS011;9663;48.996;8.334;2022-09-20T09:42:23;1.40;;;0.60;;
19059;SDS011;9663;48.996;8.334;2022-09-20T09:44:52;1.90;;;0.70;;
19059;SDS011;9663;48.996;8.334;2022-09-20T09:47:36;5.60;;;1.30;;
19059;SDS011;9663;48.996;8.334;2022-09-20T09:50:02;3.13;;;0.95;;
19059;SDS011;9663;48.996;8.334;2022-09-20T09:52:28;2.78;;;0.80;;
19059;SDS011;9663;48.996;8.334;2022-09-20T09:54:57;2.15;;;0.70;;
19059;SDS011;9663;48.996;8.334;2022-09-20T10:02:48;2.20;;;0.63;;
19059;SDS011;9663;48.996;8.334;2022-09-20T10:05:32;2.47;;;0.70;;
19059;SDS011;9663;48.996;8.334;2022-09-20T10:26:21;2.92;;;0.80;;
19059;SDS011;9663;48.996;8.334;2022-09-20T10:38:59;1.40;;;0.60;;
19059;SDS011;9663;48.996;8.334;2022-09-20T10:48:11;2.80;;;0.60;;
19059;SDS011;9663;48.996;8.334;2022-09-20T10:51:07;2.17;;;0.60;;
19059;SDS011;9663;48.996;8.334;2022-09-20T11:09:30;3.40;;;0.60;;
19059;SDS011;9663;48.996;8.334;2022-09-20T11:12:15;4.05;;;0.80;;
19059;SDS011;9663;48.996;8.334;2022-09-20T11:15:01;2.15;;;0.57;;
19059;SDS011;9663;48.996;8.334;2022-09-20T11:17:31;2.50;;;0.80;;
19059;SDS011;9663;48.996;8.334;2022-09-20T11:20:18;3.70;;;0.88;;
19059;SDS011;9663;48.996;8.334;2022-09-20T11:31:03;1.70;;;0.60;;
19059;SDS011;9663;48.996;8.334;2022-09-20T11:33:52;1.63;;;0.50;;
19059;SDS011;9663;48.996;8.334;2022-09-20T11:36:26;1.33;;;0.50;;
19059;SDS011;9663;48.996;8.334;2022-09-20T11:39:37;1.38;;;0.50;;
19059;SDS011;9663;48.996;8.334;2022-09-20T11:42:17;1.73;;;0.60;;
19059;SDS011;9663;48.996;8.334;2022-09-20T11:44:54;2.17;;;0.60;;
19059;SDS011;9663;48.996;8.334;2022-09-20T11:47:22;2.95;;;0.68;;
19059;SDS011;9663;48.996;8.334;2022-09-20T11:50:10;2.35;;;0.65;;
19059;SDS011;9663;48.996;8.334;2022-09-20T11:55:56;1.65;;;0.60;;
19059;SDS011;9663;48.996;8.334;2022-09-20T11:58:35;1.45;;;0.50;;
19059;SDS011;9663;48.996;8.334;2022-09-20T12:01:24;2.67;;;0.70;;
19059;SDS011;9663;48.996;8.334;2022-09-20T12:04:01;1.95;;;0.60;;
19059;SDS011;9663;48.996;8.334;2022-09-20T12:07:01;2.05;;;0.60;;
19059;SDS011;9663;48.996;8.334;2022-09-20T12:10:03;1.52;;;0.57;;
19059;SDS011;9663;48.996;8.334;2022-09-20T12:13:16;1.85;;;0.50;;
19059;SDS011;9663;48.996;8.334;2022-09-20T12:15:55;0.98;;;0.40;;
19059;SDS011;9663;48.996;8.334;2022-09-20T12:18:31;2.78;;;0.60;;
19059;SDS011;9663;48.996;8.334;2022-09-20T12:21:12;1.88;;;0.50;;
19059;SDS011;9663;48.996;8.334;2022-09-20T12:23:44;1.40;;;0.50;;
19059;SDS011;9663;48.996;8.334;2022-09-20T12:41:52;3.17;;;0.70;;
19059;SDS011;9663;48.996;8.334;2022-09-20T12:52:31;2.75;;;0.60;;
19059;SDS011;9663;48.996;8.334;2022-09-20T12:58:32;2.42;;;0.50;;
19059;SDS011;9663;48.996;8.334;2022-09-20T13:03:46;2.25;;;0.57;;
19059;SDS011;9663;48.996;8.334;2022-09-20T13:08:48;2.80;;;0.75;;
19059;SDS011;9663;48.996;8.334;2022-09-20T13:14:22;2.00;;;0.68;;
19059;SDS011;9663;48.996;8.334;2022-09-20T13:17:00;2.15;;;0.60;;
19059;SDS011;9663;48.996;8.334;2022-09-20T13:19:46;2.22;;;0.60;;
19059;SDS011;9663;48.996;8.334;2022-09-20T13:24:59;1.70;;;0.50;;
19059;SDS011;9663;48.996;8.334;2022-09-20T13:27:30;2.25;;;0.55;;
19059;SDS011;9663;48.996;8.334;2022-09-20T13:30:12;2.47;;;0.55;;
19059;SDS011;9663;48.996;8.334;2022-09-20T13:32:48;2.42;;;0.70;;
19059;SDS011;9663;48.996;8.334;2022-09-20T13:43:00;1.52;;;0.50;;
19059;SDS011;9663;48.996;8.334;2022-09-20T13:45:30;2.33;;;0.70;;
19059;SDS011;9663;48.996;8.334;2022-09-20T13:47:59;1.40;;;0.52;;
19059;SDS011;9663;48.996;8.334;2022-09-20T13:52:56;2.95;;;0.63;;
19059;SDS011;9663;48.996;8.334;2022-09-20T13:55:26;1.88;;;0.60;;
19059;SDS011;9663;48.996;8.334;2022-09-20T13:58:14;2.47;;;0.75;;
19059;SDS011;9663;48.996;8.334;2022-09-20T14:00:54;3.08;;;0.65;;
19059;SDS011;9663;48.996;8.334;2022-09-20T14:03:24;1.50;;;0.50;;
19059;SDS011;9663;48.996;8.334;2022-09-20T14:05:53;1.67;;;0.60;;
19059;SDS011;9663;48.996;8.334;2022-09-20T14:13:51;1.75;;;0.65;;
19059;SDS011;9663;48.996;8.334;2022-09-20T14:16:21;2.50;;;0.70;;
19059;SDS011;9663;48.996;8.334;2022-09-20T14:18:53;1.73;;;0.60;;
19059;SDS011;9663;48.996;8.334;2022-09-20T14:21:23;2.55;;;0.93;;
19059;SDS011;9663;48.996;8.334;2022-09-20T14:23:53;2.42;;;0.80;;
19059;SDS011;9663;48.996;8.334;2022-09-20T14:34:43;1.83;;;0.60;;
19059;SDS011;9663;48.996;8.334;2022-09-20T14:37:22;1.83;;;0.60;;
19059;SDS011;9663;48.996;8.334;2022-09-20T14:39:58;1.48;;;0.50;;
19059;SDS011;9663;48.996;8.334;2022-09-20T14:45:04;2.35;;;0.63;;
19059;SDS011;9663;48.996;8.334;2022-09-20T14:47:36;1.90;;;0.60;;
19059;SDS011;9663;48.996;8.334;2022-09-20T14:53:21;2.55;;;0.75;;
19059;SDS011;9663;48.996;8.334;2022-09-20T14:55:54;1.38;;;0.57;;
19059;SDS011;9663;48.996;8.334;2022-09-20T14:58:58;1.90;;;0.52;;
19059;SDS011;9663;48.996;8.334;2022-09-20T15:01:27;2.70;;;0.68;;
19059;SDS011;9663;48.996;8.334;2022-09-20T15:03:53;1.63;;;0.50;;
19059;SDS011;9663;48.996;8.334;2022-09-20T15:06:21;3.38;;;0.70;;
19059;SDS011;9663;48.996;8.334;2022-09-20T15:08:48;1.85;;;0.50;;
19059;SDS011;9663;48.996;8.334;2022-09-20T15:11:14;2.40;;;0.88;;
19059;SDS011;9663;48.996;8.334;2022-09-20T15:13:43;1.92;;;0.57;;
19059;SDS011;9663;48.996;8.334;2022-09-20T15:16:13;1.60;;;0.60;;
19059;SDS011;9663;48.996;8.334;2022-09-20T15:18:42;1.83;;;0.60;;
19059;SDS011;9663;48.996;8.334;2022-09-20T15:21:08;2.20;;;0.85;;
19059;SDS011;9663;48.996;8.334;2022-09-20T15:26:02;1.42;;;0.57;;
19059;SDS011;9663;48.996;8.334;2022-09-20T15:28:28;1.35;;;0.50;;
19059;SDS011;9663;48.996;8.334;2022-09-20T15:30:56;1.55;;;0.60;;
19059;SDS011;9663;48.996;8.334;2022-09-20T15:33:22;1.25;;;0.50;;
19059;SDS011;9663;48.996;8.334;2022-09-20T15:35:48;1.52;;;0.50;;
19059;SDS011;9663;48.996;8.334;2022-09-20T15:38:15;1.83;;;0.80;;
19059;SDS011;9663;48.996;8.334;2022-09-20T15:40:43;1.48;;;0.50;;
19059;SDS011;9663;48.996;8.334;2022-09-20T15:43:21;3.70;;;0.60;;
19059;SDS011;9663;48.996;8.334;2022-09-20T15:45:54;3.25;;;0.63;;
19059;SDS011;9663;48.996;8.334;2022-09-20T15:48:26;1.55;;;0.70;;
19059;SDS011;9663;48.996;8.334;2022-09-20T15:53:27;1.80;;;0.60;;
19059;SDS011;9663;48.996;8.334;2022-09-20T15:55:58;1.35;;;0.50;;
19059;SDS011;9663;48.996;8.334;2022-09-20T15:58:27;1.50;;;0.55;;
19059;SDS011;9663;48.996;8.334;2022-09-20T16:01:00;2.35;;;0.73;;
19059;SDS011;9663;48.996;8.334;2022-09-20T16:03:31;1.05;;;0.60;;
19059;SDS011;9663;48.996;8.334;2022-09-20T16:05:58;3.00;;;0.80;;
19059;SDS011;9663;48.996;8.334;2022-09-20T16:08:29;2.55;;;0.60;;
19059;SDS011;9663;48.996;8.334;2022-09-20T16:11:00;1.83;;;0.70;;
19059;SDS011;9663;48.996;8.334;2022-09-20T16:13:27;2.22;;;0.70;;
19059;SDS011;9663;48.996;8.334;2022-09-20T16:15:56;1.75;;;0.60;;
19059;SDS011;9663;48.996;8.334;2022-09-20T16:20:54;1.70;;;0.52;;
19059;SDS011;9663;48.996;8.334;2022-09-20T16:23:35;2.95;;;0.80;;
19059;SDS011;9663;48.996;8.334;2022-09-20T16:26:03;1.92;;;0.60;;
19059;SDS011;9663;48.996;8.334;2022-09-20T16:28:43;1.60;;;0.50;;
19059;SDS011;9663;48.996;8.334;2022-09-20T16:39:18;1.75;;;0.63;;
19059;SDS011;9663;48.996;8.334;2022-09-20T16:41:49;1.30;;;0.50;;
19059;SDS011;9663;48.996;8.334;2022-09-20T16:44:16;3.08;;;0.63;;
19059;SDS011;9663;48.996;8.334;2022-09-20T16:46:42;1.92;;;0.60;;
19059;SDS011;9663;48.996;8.334;2022-09-20T16:49:12;1.40;;;0.50;;
19059;SDS011;9663;48.996;8.334;2022-09-20T16:51:40;1.55;;;0.50;;
19059;SDS011;9663;48.996;8.334;2022-09-20T16:54:11;1.55;;;0.57;;
19059;SDS011;9663;48.996;8.334;2022-09-20T16:56:40;1.65;;;0.50;;
19059;SDS011;9663;48.996;8.334;2022-09-20T16:59:11;1.65;;;0.57;;
19059;SDS011;9663;48.996;8.334;2022-09-20T17:01:39;1.95;;;0.70;;
19059;SDS011;9663;48.996;8.334;2022-09-20T17:04:07;3.85;;;0.80;;
19059;SDS011;9663;48.996;8.334;2022-09-20T17:06:34;3.38;;;0.85;;
19059;SDS011;9663;48.996;8.334;2022-09-20T17:09:02;4.30;;;1.33;;
19059;SDS011;9663;48.996;8.334;2022-09-20T17:11:33;4.13;;;1.40;;
19059;SDS011;9663;48.996;8.334;2022-09-20T17:14:09;3.70;;;1.20;;
19059;SDS011;9663;48.996;8.334;2022-09-20T17:16:37;3.45;;;1.13;;
19059;SDS011;9663;48.996;8.334;2022-09-20T17:29:25;2.33;;;0.70;;
19059;SDS011;9663;48.996;8.334;2022-09-20T17:31:51;2.28;;;0.73;;
19059;SDS011;9663;48.996;8.334;2022-09-20T17:34:17;2.40;;;0.70;;
19059;SDS011;9663;48.996;8.334;2022-09-20T17:36:45;1.83;;;0.60;;
19059;SDS011;9663;48.996;8.334;2022-09-20T17:39:13;2.45;;;0.70;;
19059;SDS011;9663;48.996;8.334;2022-09-20T17:41:41;2.70;;;0.85;;
19059;SDS011;9663;48.996;8.334;2022-09-20T17:46:45;3.65;;;1.40;;
19059;SDS011;9663;48.996;8.334;2022-09-20T17:49:16;3.05;;;1.30;;
19059;SDS011;9663;48.996;8.334;2022-09-20T17:54:13;4.88;;;1.63;;
19059;SDS011;9663;48.996;8.334;2022-09-20T17:56:43;5.60;;;2.38;;
19059;SDS011;9663;48.996;8.334;2022-09-20T17:59:14;6.18;;;2.55;;
19059;SDS011;9663;48.996;8.334;2022-09-20T18:01:42;7.38;;;3.25;;
19059;SDS011;9663;48.996;8.334;2022-09-20T18:04:11;7.60;;;3.22;;
19059;SDS011;9663;48.996;8.334;2022-09-20T18:06:38;8.35;;;3.85;;
19059;SDS011;9663;48.996;8.334;2022-09-20T18:09:10;7.75;;;4.05;;
19059;SDS011;9663;48.996;8.334;2022-09-20T18:11:40;7.78;;;3.38;;
19059;SDS011;9663;48.996;8.334;2022-09-20T18:14:10;8.27;;;3.63;;
19059;SDS011;9663;48.996;8.334;2022-09-20T18:16:37;6.07;;;2.47;;
19059;SDS011;9663;48.996;8.334;2022-09-20T18:19:06;6.50;;;2.60;;
19059;SDS011;9663;48.996;8.334;2022-09-20T18:21:33;5.10;;;2.53;;
19059;SDS011;9663;48.996;8.334;2022-09-20T18:24:03;6.57;;;2.58;;
19059;SDS011;9663;48.996;8.334;2022-09-20T18:26:31;6.25;;;2.10;;
19059;SDS011;9663;48.996;8.334;2022-09-20T18:28:58;6.25;;;2.28;;
19059;SDS011;9663;48.996;8.334;2022-09-20T18:31:30;4.90;;;2.00;;
19059;SDS011;9663;48.996;8.334;2022-09-20T18:34:02;5.32;;;1.80;;
19059;SDS011;9663;48.996;8.334;2022-09-20T18:36:35;3.72;;;1.50;;
19059;SDS011;9663;48.996;8.334;2022-09-20T18:39:06;4.78;;;1.70;;
19059;SDS011;9663;48.996;8.334;2022-09-20T18:41:35;5.57;;;1.90;;
19059;SDS011;9663;48.996;8.334;2022-09-20T18:44:04;4.40;;;1.60;;
19059;SDS011;9663;48.996;8.334;2022-09-20T18:46:32;4.00;;;1.60;;
19059;SDS011;9663;48.996;8.334;2022-09-20T18:49:03;4.70;;;1.52;;
19059;SDS011;9663;48.996;8.334;2022-09-20T18:51:32;3.20;;;1.20;;
19059;SDS011;9663;48.996;8.334;2022-09-20T18:53:58;3.60;;;1.30;;
19059;SDS011;9663;48.996;8.334;2022-09-20T18:58:58;3.53;;;1.15;;
19059;SDS011;9663;48.996;8.334;2022-09-20T19:27:47;5.05;;;1.38;;
19059;SDS011;9663;48.996;8.334;2022-09-20T19:30:14;2.78;;;0.90;;
19059;SDS011;9663;48.996;8.334;2022-09-20T19:32:41;2.67;;;0.80;;
19059;SDS011;9663;48.996;8.334;2022-09-20T19:35:13;3.38;;;1.13;;
19059;SDS011;9663;48.996;8.334;2022-09-20T19:40:54;2.78;;;0.90;;
19059;SDS011;9663;48.996;8.334;2022-09-20T19:43:55;3.58;;;1.20;;
19059;SDS011;9663;48.996;8.334;2022-09-20T19:46:42;2.70;;;0.90;;
19059;SDS011;9663;48.996;8.334;2022-09-20T19:49:22;3.30;;;1.00;;
19059;SDS011;9663;48.996;8.334;2022-09-20T19:52:11;4.20;;;1.00;;
19059;SDS011;9663;48.996;8.334;2022-09-20T19:54:37;4.70;;;1.10;;
19059;SDS011;9663;48.996;8.334;2022-09-20T19:57:06;3.95;;;1.10;;
19059;SDS011;9663;48.996;8.334;2022-09-20T19:59:41;2.65;;;0.90;;
19059;SDS011;9663;48.996;8.334;2022-09-20T20:02:08;2.92;;;1.20;;
19059;SDS011;9663;48.996;8.334;2022-09-20T20:04:36;3.17;;;0.93;;
19059;SDS011;9663;48.996;8.334;2022-09-20T20:16:48;2.55;;;0.98;;
19059;SDS011;9663;48.996;8.334;2022-09-20T20:22:22;4.53;;;1.23;;
19059;SDS011;9663;48.996;8.334;2022-09-20T20:28:19;2.75;;;1.00;;
19059;SDS011;9663;48.996;8.334;2022-09-20T20:30:44;2.80;;;1.02;;
19059;SDS011;9663;48.996;8.334;2022-09-20T20:33:16;2.80;;;1.02;;
19059;SDS011;9663;48.996;8.334;2022-09-20T20:35:58;2.78;;;0.90;;
19059;SDS011;9663;48.996;8.334;2022-09-20T20:38:25;3.05;;;1.00;;
19059;SDS011;9663;48.996;8.334;2022-09-20T20:41:08;3.78;;;1.20;;
19059;SDS011;9663;48.996;8.334;2022-09-20T20:43:38;3.53;;;1.13;;
19059;SDS011;9663;48.996;8.334;2022-09-20T20:46:07;2.50;;;0.90;;
19059;SDS011;9663;48.996;8.334;2022-09-20T20:48:36;3.03;;;1.10;;
19059;SDS011;9663;48.996;8.334;2022-09-20T20:51:03;3.67;;;1.40;;
19059;SDS011;9663;48.996;8.334;2022-09-20T20:53:35;3.20;;;1.17;;
19059;SDS011;9663;48.996;8.334;2022-09-20T20:56:05;3.78;;;1.20;;
19059;SDS011;9663;48.996;8.334;2022-09-20T20:58:37;4.03;;;1.30;;
19059;SDS011;9663;48.996;8.334;2022-09-20T21:03:40;3.08;;;1.05;;
19059;SDS011;9663;48.996;8.334;2022-09-20T21:06:08;3.80;;;1.20;;
19059;SDS011;9663;48.996;8.334;2022-09-20T21:08:36;3.72;;;1.30;;
19059;SDS011;9663;48.996;8.334;2022-09-20T21:11:07;3.42;;;1.30;;
19059;SDS011;9663;48.996;8.334;2022-09-20T21:13:39;3.40;;;1.23;;
19059;SDS011;9663;48.996;8.334;2022-09-20T21:16:09;4.15;;;1.20;;
19059;SDS011;9663;48.996;8.334;2022-09-20T21:18:38;3.22;;;1.10;;
19059;SDS011;9663;48.996;8.334;2022-09-20T21:21:13;3.22;;;1.15;;
19059;SDS011;9663;48.996;8.334;2022-09-20T21:23:46;3.00;;;0.98;;
19059;SDS011;9663;48.996;8.334;2022-09-20T21:26:17;3.58;;;1.27;;
19059;SDS011;9663;48.996;8.334;2022-09-20T21:28:47;3.55;;;1.30;;
19059;SDS011;9663;48.996;8.334;2022-09-20T21:31:22;3.22;;;1.20;;
19059;SDS011;9663;48.996;8.334;2022-09-20T21:33:48;4.25;;;1.15;;
19059;SDS011;9663;48.996;8.334;2022-09-20T21:36:15;3.15;;;1.20;;
19059;SDS011;9663;48.996;8.334;2022-09-20T21:38:44;3.05;;;1.20;;
19059;SDS011;9663;48.996;8.334;2022-09-20T21:41:11;3.92;;;1.20;;
19059;SDS011;9663;48.996;8.334;2022-09-20T21:43:43;3.13;;;1.00;;
19059;SDS011;9663;48.996;8.334;2022-09-20T21:46:11;3.63;;;1.27;;
19059;SDS011;9663;48.996;8.334;2022-09-20T21:48:42;4.18;;;1.48;;
19059;SDS011;9663;48.996;8.334;2022-09-20T21:51:08;2.97;;;1.10;;
19059;SDS011;9663;48.996;8.334;2022-09-20T21:53:36;4.03;;;1.40;;
19059;SDS011;9663;48.996;8.334;2022-09-20T21:56:04;3.33;;;1.20;;
19059;SDS011;9663;48.996;8.334;2022-09-20T21:58:32;3.42;;;1.25;;
19059;SDS011;9663;48.996;8.334;2022-09-20T22:00:59;3.38;;;1.25;;
19059;SDS011;9663;48.996;8.334;2022-09-20T22:03:33;3.45;;;1.48;;
19059;SDS011;9663;48.996;8.334;2022-09-20T22:08:41;4.47;;;1.50;;
19059;SDS011;9663;48.996;8.334;2022-09-20T22:11:13;4.20;;;1.30;;
19059;SDS011;9663;48.996;8.334;2022-09-20T22:13:43;3.95;;;1.48;;
19059;SDS011;9663;48.996;8.334;2022-09-20T22:16:16;3.75;;;1.27;;
19059;SDS011;9663;48.996;8.334;2022-09-20T22:18:47;4.03;;;1.58;;
19059;SDS011;9663;48.996;8.334;2022-09-20T22:23:46;5.57;;;1.52;;
19059;SDS011;9663;48.996;8.334;2022-09-20T22:26:17;5.90;;;1.73;;
19059;SDS011;9663;48.996;8.334;2022-09-20T22:28:46;4.75;;;1.27;;
19059;SDS011;9663;48.996;8.334;2022-09-20T22:31:19;3.40;;;1.42;;
19059;SDS011;9663;48.996;8.334;2022-09-20T22:33:52;2.72;;;1.17;;
19059;SDS011;9663;48.996;8.334;2022-09-20T22:36:21;3.65;;;1.52;;
19059;SDS011;9663;48.996;8.334;2022-09-20T22:38:49;5.15;;;1.27;;